Cincinnati Northern Kentucky International Airport
KCVG : now visible

Airfield :











YOU CAN JOIN US ON...

 
LOGIN :

Register | Disclaimer

   EN    FR    IT 

 









Legend :    VFR   Marginal VFR   IFR   Intensive IFR   Very Intensive IFR
Visi :
Ceiling :
>= 8 km
>= 3000ft
5 to 8 km
1000 to 3000 ft
1500m to 5 km
500 to 1000 ft
800 to 1500m
200 to 500 ft
< 800m
< 200 ft
Symbols :   Thunderstorms  Fog  Heavy snow  Heavy precipitations  Wind > 20 kt






- Airport Elevation : 896 ft
- IATA code : CVG


KCVG - Cincinnati Northern Kentucky International

CURRENT METAR :
  • 270652Z VRB06KT 10SM OVC024 01/M03 A3010 RMK AO2 SLP196 T00061033

EXPIRED METARs :
  • 270552Z VRB06KT 10SM OVC029 01/M03 A3009 RMK AO2 SLP191 T00061033 10044 20006 51019
  • 270545Z 29007KT 10SM FEW023 OVC030 01/M03 A3009 RMK AO2 T00061033
  • 270452Z 32011KT 10SM OVC022 01/M03 A3007 RMK AO2 SLP186 T00111033 400720011

TAF KCVG
Valid from the 27 at 06:00 until the 28 at 12:00 UTC


270533Z 2706/2812 33006KT P6SM SCT015 OVC025
FM270900 02006KT P6SM OVC015
FM271500 03008KT P6SM BKN015
FM272100 36010KT 5SM -SN BR OVC015
TEMPO 2723/2802 2SM -SN BR
FM280500 35010KT P6SM SCT025 BKN035
KZID FIR / North America



MET'MAP, your aeronautical weather chart ! - Copyright ORBIFLY December 2007 - Disclaimer

ORBIFLY MET'MAP TEAM :

Programming & Development : Alexandra Zaïnal
Concept & original design : Baudouin d'Aumeries
Assistance for programming : Marc-Olivier Méhu
Technical & hardware support : Manuel Goepfert

Contact : metmap@orbifly.com




SOURCES & CREDITS :

   NOAA       Earth
Advisory